sensor_id;sensor_type;location;lat;lon;timestamp;P1;durP1;ratioP1;P2;durP2;ratioP2
54171;SDS011;40076;52.354;4.970;2023-03-13T00:00:08;30.67;;;6.82;;
54171;SDS011;40076;52.354;4.970;2023-03-13T00:02:34;33.80;;;7.82;;
54171;SDS011;40076;52.354;4.970;2023-03-13T00:04:59;39.83;;;7.25;;
54171;SDS011;40076;52.354;4.970;2023-03-13T00:07:25;26.70;;;6.55;;
54171;SDS011;40076;52.354;4.970;2023-03-13T00:09:50;27.38;;;6.90;;
54171;SDS011;40076;52.354;4.970;2023-03-13T00:12:15;36.67;;;6.93;;
54171;SDS011;40076;52.354;4.970;2023-03-13T00:14:41;31.48;;;7.00;;
54171;SDS011;40076;52.354;4.970;2023-03-13T00:17:07;31.58;;;6.82;;
54171;SDS011;40076;52.354;4.970;2023-03-13T00:19:32;34.63;;;8.57;;
54171;SDS011;40076;52.354;4.970;2023-03-13T00:21:57;34.38;;;7.13;;
54171;SDS011;40076;52.354;4.970;2023-03-13T00:24:23;33.10;;;8.05;;
54171;SDS011;40076;52.354;4.970;2023-03-13T00:26:48;34.45;;;6.95;;
54171;SDS011;40076;52.354;4.970;2023-03-13T00:29:13;35.47;;;7.35;;
54171;SDS011;40076;52.354;4.970;2023-03-13T00:31:39;34.70;;;7.18;;
54171;SDS011;40076;52.354;4.970;2023-03-13T00:34:04;39.13;;;7.38;;
54171;SDS011;40076;52.354;4.970;2023-03-13T00:36:30;29.27;;;7.10;;
54171;SDS011;40076;52.354;4.970;2023-03-13T00:38:57;34.53;;;7.28;;
54171;SDS011;40076;52.354;4.970;2023-03-13T00:41:24;33.30;;;7.50;;
54171;SDS011;40076;52.354;4.970;2023-03-13T00:43:53;28.50;;;7.85;;
54171;SDS011;40076;52.354;4.970;2023-03-13T00:46:20;32.90;;;8.25;;
54171;SDS011;40076;52.354;4.970;2023-03-13T00:48:47;31.35;;;8.23;;
54171;SDS011;40076;52.354;4.970;2023-03-13T00:51:14;28.17;;;7.90;;
54171;SDS011;40076;52.354;4.970;2023-03-13T00:53:40;23.75;;;7.38;;
54171;SDS011;40076;52.354;4.970;2023-03-13T00:56:07;28.13;;;9.15;;
54171;SDS011;40076;52.354;4.970;2023-03-13T00:58:38;32.28;;;9.75;;
54171;SDS011;40076;52.354;4.970;2023-03-13T01:01:11;37.15;;;9.73;;
54171;SDS011;40076;52.354;4.970;2023-03-13T01:03:39;34.83;;;9.60;;
54171;SDS011;40076;52.354;4.970;2023-03-13T01:06:07;26.30;;;9.02;;
54171;SDS011;40076;52.354;4.970;2023-03-13T01:08:34;31.35;;;9.18;;
54171;SDS011;40076;52.354;4.970;2023-03-13T01:11:04;28.92;;;8.80;;
54171;SDS011;40076;52.354;4.970;2023-03-13T01:13:31;23.27;;;8.73;;
54171;SDS011;40076;52.354;4.970;2023-03-13T01:16:00;20.70;;;8.20;;
54171;SDS011;40076;52.354;4.970;2023-03-13T01:18:27;18.77;;;7.47;;
54171;SDS011;40076;52.354;4.970;2023-03-13T01:20:52;23.42;;;9.30;;
54171;SDS011;40076;52.354;4.970;2023-03-13T01:23:17;18.38;;;7.72;;
54171;SDS011;40076;52.354;4.970;2023-03-13T01:25:42;21.63;;;7.82;;
54171;SDS011;40076;52.354;4.970;2023-03-13T01:28:08;19.30;;;8.73;;
54171;SDS011;40076;52.354;4.970;2023-03-13T01:30:33;21.35;;;9.38;;
54171;SDS011;40076;52.354;4.970;2023-03-13T01:32:58;22.85;;;10.10;;
54171;SDS011;40076;52.354;4.970;2023-03-13T01:35:24;22.00;;;10.68;;
54171;SDS011;40076;52.354;4.970;2023-03-13T01:37:49;17.90;;;10.48;;
54171;SDS011;40076;52.354;4.970;2023-03-13T01:40:14;29.75;;;10.23;;
54171;SDS011;40076;52.354;4.970;2023-03-13T01:42:53;21.65;;;11.40;;
54171;SDS011;40076;52.354;4.970;2023-03-13T01:48:13;19.95;;;9.82;;
54171;SDS011;40076;52.354;4.970;2023-03-13T01:50:38;17.55;;;10.25;;
54171;SDS011;40076;52.354;4.970;2023-03-13T01:53:04;21.25;;;10.70;;
54171;SDS011;40076;52.354;4.970;2023-03-13T01:55:29;18.55;;;11.00;;
54171;SDS011;40076;52.354;4.970;2023-03-13T01:57:54;21.63;;;11.70;;
54171;SDS011;40076;52.354;4.970;2023-03-13T02:00:22;25.15;;;13.10;;
54171;SDS011;40076;52.354;4.970;2023-03-13T02:02:49;19.25;;;11.18;;
54171;SDS011;40076;52.354;4.970;2023-03-13T02:05:19;19.83;;;11.52;;
54171;SDS011;40076;52.354;4.970;2023-03-13T02:07:47;21.25;;;12.15;;
54171;SDS011;40076;52.354;4.970;2023-03-13T02:10:16;20.45;;;11.57;;
54171;SDS011;40076;52.354;4.970;2023-03-13T02:12:43;22.70;;;11.48;;
54171;SDS011;40076;52.354;4.970;2023-03-13T02:15:12;18.23;;;10.77;;
54171;SDS011;40076;52.354;4.970;2023-03-13T02:17:40;20.52;;;11.77;;
54171;SDS011;40076;52.354;4.970;2023-03-13T02:20:07;20.17;;;12.40;;
54171;SDS011;40076;52.354;4.970;2023-03-13T02:27:47;19.63;;;12.15;;
54171;SDS011;40076;52.354;4.970;2023-03-13T02:30:16;16.55;;;11.98;;
54171;SDS011;40076;52.354;4.970;2023-03-13T02:32:42;16.50;;;10.77;;
54171;SDS011;40076;52.354;4.970;2023-03-13T02:35:10;20.27;;;10.27;;
54171;SDS011;40076;52.354;4.970;2023-03-13T02:37:38;19.17;;;13.05;;
54171;SDS011;40076;52.354;4.970;2023-03-13T02:40:08;21.02;;;12.90;;
54171;SDS011;40076;52.354;4.970;2023-03-13T02:42:40;24.70;;;13.65;;
54171;SDS011;40076;52.354;4.970;2023-03-13T02:45:07;21.40;;;13.30;;
54171;SDS011;40076;52.354;4.970;2023-03-13T02:47:33;24.08;;;14.90;;
54171;SDS011;40076;52.354;4.970;2023-03-13T02:49:59;27.65;;;15.07;;
54171;SDS011;40076;52.354;4.970;2023-03-13T02:52:31;20.98;;;14.85;;
54171;SDS011;40076;52.354;4.970;2023-03-13T02:55:06;30.33;;;16.90;;
54171;SDS011;40076;52.354;4.970;2023-03-13T02:57:48;24.38;;;16.95;;
54171;SDS011;40076;52.354;4.970;2023-03-13T03:00:14;26.83;;;17.42;;
54171;SDS011;40076;52.354;4.970;2023-03-13T03:02:44;27.40;;;17.40;;
54171;SDS011;40076;52.354;4.970;2023-03-13T03:05:10;30.05;;;18.30;;
54171;SDS011;40076;52.354;4.970;2023-03-13T03:07:36;32.17;;;20.67;;
54171;SDS011;40076;52.354;4.970;2023-03-13T03:10:02;29.67;;;19.77;;
54171;SDS011;40076;52.354;4.970;2023-03-13T03:12:27;33.55;;;21.83;;
54171;SDS011;40076;52.354;4.970;2023-03-13T03:14:53;31.73;;;21.73;;
54171;SDS011;40076;52.354;4.970;2023-03-13T03:17:18;34.20;;;21.83;;
54171;SDS011;40076;52.354;4.970;2023-03-13T03:19:43;33.97;;;21.98;;
54171;SDS011;40076;52.354;4.970;2023-03-13T03:22:09;29.63;;;20.80;;
54171;SDS011;40076;52.354;4.970;2023-03-13T03:24:34;25.88;;;19.80;;
54171;SDS011;40076;52.354;4.970;2023-03-13T03:26:59;28.10;;;18.45;;
54171;SDS011;40076;52.354;4.970;2023-03-13T03:29:25;26.77;;;17.42;;
54171;SDS011;40076;52.354;4.970;2023-03-13T03:31:51;24.23;;;14.90;;
54171;SDS011;40076;52.354;4.970;2023-03-13T03:34:17;21.77;;;12.20;;
54171;SDS011;40076;52.354;4.970;2023-03-13T03:36:42;19.30;;;12.10;;
54171;SDS011;40076;52.354;4.970;2023-03-13T03:39:10;22.23;;;12.13;;
54171;SDS011;40076;52.354;4.970;2023-03-13T03:41:36;24.35;;;11.68;;
54171;SDS011;40076;52.354;4.970;2023-03-13T03:44:01;19.13;;;9.95;;
54171;SDS011;40076;52.354;4.970;2023-03-13T03:46:27;17.55;;;9.23;;
54171;SDS011;40076;52.354;4.970;2023-03-13T03:48:52;14.82;;;8.57;;
54171;SDS011;40076;52.354;4.970;2023-03-13T03:51:18;14.23;;;8.02;;
54171;SDS011;40076;52.354;4.970;2023-03-13T03:53:43;15.93;;;7.78;;
54171;SDS011;40076;52.354;4.970;2023-03-13T03:56:09;15.77;;;7.95;;
54171;SDS011;40076;52.354;4.970;2023-03-13T03:58:37;16.05;;;8.35;;
54171;SDS011;40076;52.354;4.970;2023-03-13T04:01:02;19.00;;;7.78;;
54171;SDS011;40076;52.354;4.970;2023-03-13T04:03:28;11.93;;;6.95;;
54171;SDS011;40076;52.354;4.970;2023-03-13T04:05:53;19.38;;;6.97;;
54171;SDS011;40076;52.354;4.970;2023-03-13T04:08:21;18.08;;;6.50;;
54171;SDS011;40076;52.354;4.970;2023-03-13T04:10:47;17.75;;;6.90;;
54171;SDS011;40076;52.354;4.970;2023-03-13T04:13:12;14.07;;;5.97;;
54171;SDS011;40076;52.354;4.970;2023-03-13T04:15:38;19.73;;;6.10;;
54171;SDS011;40076;52.354;4.970;2023-03-13T04:18:04;11.95;;;6.05;;
54171;SDS011;40076;52.354;4.970;2023-03-13T04:20:30;13.07;;;5.55;;
54171;SDS011;40076;52.354;4.970;2023-03-13T04:22:55;13.60;;;5.63;;
54171;SDS011;40076;52.354;4.970;2023-03-13T04:25:20;8.23;;;5.50;;
54171;SDS011;40076;52.354;4.970;2023-03-13T04:27:46;12.35;;;5.47;;
54171;SDS011;40076;52.354;4.970;2023-03-13T04:30:11;15.38;;;5.38;;
54171;SDS011;40076;52.354;4.970;2023-03-13T04:32:37;13.00;;;6.13;;
54171;SDS011;40076;52.354;4.970;2023-03-13T04:35:03;14.32;;;5.60;;
54171;SDS011;40076;52.354;4.970;2023-03-13T04:37:28;12.27;;;6.25;;
54171;SDS011;40076;52.354;4.970;2023-03-13T04:39:57;10.65;;;6.00;;
54171;SDS011;40076;52.354;4.970;2023-03-13T04:42:22;14.10;;;6.88;;
54171;SDS011;40076;52.354;4.970;2023-03-13T04:44:47;9.57;;;5.70;;
54171;SDS011;40076;52.354;4.970;2023-03-13T04:47:13;13.50;;;6.18;;
54171;SDS011;40076;52.354;4.970;2023-03-13T04:49:38;13.75;;;6.50;;
54171;SDS011;40076;52.354;4.970;2023-03-13T04:52:03;13.02;;;6.25;;
54171;SDS011;40076;52.354;4.970;2023-03-13T04:54:29;11.90;;;6.20;;
54171;SDS011;40076;52.354;4.970;2023-03-13T04:56:54;13.20;;;6.35;;
54171;SDS011;40076;52.354;4.970;2023-03-13T04:59:20;13.55;;;5.65;;
54171;SDS011;40076;52.354;4.970;2023-03-13T05:01:45;13.07;;;5.88;;
54171;SDS011;40076;52.354;4.970;2023-03-13T05:04:10;11.95;;;5.47;;
54171;SDS011;40076;52.354;4.970;2023-03-13T05:06:36;12.50;;;5.65;;
54171;SDS011;40076;52.354;4.970;2023-03-13T05:09:01;16.20;;;5.80;;
54171;SDS011;40076;52.354;4.970;2023-03-13T05:11:27;17.10;;;6.07;;
54171;SDS011;40076;52.354;4.970;2023-03-13T05:13:53;12.05;;;5.28;;
54171;SDS011;40076;52.354;4.970;2023-03-13T05:16:18;11.27;;;5.68;;
54171;SDS011;40076;52.354;4.970;2023-03-13T05:18:44;13.57;;;5.60;;
54171;SDS011;40076;52.354;4.970;2023-03-13T05:21:09;16.60;;;5.25;;
54171;SDS011;40076;52.354;4.970;2023-03-13T05:23:34;13.82;;;5.28;;
54171;SDS011;40076;52.354;4.970;2023-03-13T05:26:00;15.13;;;5.45;;
54171;SDS011;40076;52.354;4.970;2023-03-13T05:28:25;11.85;;;4.80;;
54171;SDS011;40076;52.354;4.970;2023-03-13T05:30:51;13.25;;;5.20;;
54171;SDS011;40076;52.354;4.970;2023-03-13T05:33:16;17.73;;;4.70;;
54171;SDS011;40076;52.354;4.970;2023-03-13T05:35:43;15.98;;;4.63;;
54171;SDS011;40076;52.354;4.970;2023-03-13T05:38:09;14.45;;;5.18;;
54171;SDS011;40076;52.354;4.970;2023-03-13T05:40:34;16.75;;;5.32;;
54171;SDS011;40076;52.354;4.970;2023-03-13T05:42:59;14.60;;;5.07;;
54171;SDS011;40076;52.354;4.970;2023-03-13T05:45:24;15.27;;;5.07;;
54171;SDS011;40076;52.354;4.970;2023-03-13T05:47:50;16.42;;;4.15;;
54171;SDS011;40076;52.354;4.970;2023-03-13T05:50:15;18.90;;;4.25;;
54171;SDS011;40076;52.354;4.970;2023-03-13T05:52:41;13.82;;;4.25;;
54171;SDS011;40076;52.354;4.970;2023-03-13T05:55:06;16.25;;;4.95;;
54171;SDS011;40076;52.354;4.970;2023-03-13T05:57:32;14.27;;;3.88;;
54171;SDS011;40076;52.354;4.970;2023-03-13T05:59:57;13.60;;;3.67;;
54171;SDS011;40076;52.354;4.970;2023-03-13T06:02:23;15.13;;;4.35;;
54171;SDS011;40076;52.354;4.970;2023-03-13T06:04:49;18.55;;;3.60;;
54171;SDS011;40076;52.354;4.970;2023-03-13T06:07:14;12.40;;;3.97;;
54171;SDS011;40076;52.354;4.970;2023-03-13T06:09:39;13.40;;;3.88;;
54171;SDS011;40076;52.354;4.970;2023-03-13T06:12:05;14.45;;;4.88;;
54171;SDS011;40076;52.354;4.970;2023-03-13T06:14:31;19.95;;;3.85;;
54171;SDS011;40076;52.354;4.970;2023-03-13T06:16:57;15.05;;;4.00;;
54171;SDS011;40076;52.354;4.970;2023-03-13T06:19:22;14.43;;;4.40;;
54171;SDS011;40076;52.354;4.970;2023-03-13T06:21:48;14.35;;;3.95;;
54171;SDS011;40076;52.354;4.970;2023-03-13T06:24:14;9.85;;;3.00;;
54171;SDS011;40076;52.354;4.970;2023-03-13T06:26:39;14.20;;;4.03;;
54171;SDS011;40076;52.354;4.970;2023-03-13T06:29:05;12.35;;;3.47;;
54171;SDS011;40076;52.354;4.970;2023-03-13T06:31:30;12.80;;;3.75;;
54171;SDS011;40076;52.354;4.970;2023-03-13T06:33:56;13.07;;;3.92;;
54171;SDS011;40076;52.354;4.970;2023-03-13T06:36:22;16.02;;;4.35;;
54171;SDS011;40076;52.354;4.970;2023-03-13T06:38:48;16.08;;;4.03;;
54171;SDS011;40076;52.354;4.970;2023-03-13T06:41:13;17.27;;;4.13;;
54171;SDS011;40076;52.354;4.970;2023-03-13T06:43:39;14.30;;;3.90;;
54171;SDS011;40076;52.354;4.970;2023-03-13T06:46:05;11.25;;;3.72;;
54171;SDS011;40076;52.354;4.970;2023-03-13T06:48:31;11.82;;;4.30;;
54171;SDS011;40076;52.354;4.970;2023-03-13T06:50:57;13.70;;;3.70;;
54171;SDS011;40076;52.354;4.970;2023-03-13T06:53:22;16.83;;;4.45;;
54171;SDS011;40076;52.354;4.970;2023-03-13T06:55:48;14.27;;;3.85;;
54171;SDS011;40076;52.354;4.970;2023-03-13T06:58:13;12.93;;;4.18;;
54171;SDS011;40076;52.354;4.970;2023-03-13T07:00:42;11.70;;;4.22;;
54171;SDS011;40076;52.354;4.970;2023-03-13T07:03:08;11.13;;;3.72;;
54171;SDS011;40076;52.354;4.970;2023-03-13T07:05:38;11.80;;;3.63;;
54171;SDS011;40076;52.354;4.970;2023-03-13T07:08:03;12.85;;;3.97;;
54171;SDS011;40076;52.354;4.970;2023-03-13T07:10:32;14.05;;;4.20;;
54171;SDS011;40076;52.354;4.970;2023-03-13T07:12:57;10.27;;;3.70;;
54171;SDS011;40076;52.354;4.970;2023-03-13T07:15:22;12.52;;;3.75;;
54171;SDS011;40076;52.354;4.970;2023-03-13T07:17:48;10.80;;;3.90;;
54171;SDS011;40076;52.354;4.970;2023-03-13T07:20:13;15.05;;;4.15;;
54171;SDS011;40076;52.354;4.970;2023-03-13T07:22:38;11.48;;;4.60;;
54171;SDS011;40076;52.354;4.970;2023-03-13T07:25:04;15.18;;;4.38;;
54171;SDS011;40076;52.354;4.970;2023-03-13T07:27:30;13.75;;;4.60;;
54171;SDS011;40076;52.354;4.970;2023-03-13T07:29:56;15.00;;;4.38;;
54171;SDS011;40076;52.354;4.970;2023-03-13T07:32:21;17.55;;;4.80;;
54171;SDS011;40076;52.354;4.970;2023-03-13T07:34:47;9.70;;;3.85;;
54171;SDS011;40076;52.354;4.970;2023-03-13T07:37:12;10.55;;;3.97;;
54171;SDS011;40076;52.354;4.970;2023-03-13T07:39:39;10.80;;;4.03;;
54171;SDS011;40076;52.354;4.970;2023-03-13T07:42:05;14.93;;;4.22;;
54171;SDS011;40076;52.354;4.970;2023-03-13T07:44:30;11.80;;;4.20;;
54171;SDS011;40076;52.354;4.970;2023-03-13T07:46:58;14.25;;;4.35;;
54171;SDS011;40076;52.354;4.970;2023-03-13T07:49:24;13.43;;;3.42;;
54171;SDS011;40076;52.354;4.970;2023-03-13T07:51:49;11.70;;;3.08;;
54171;SDS011;40076;52.354;4.970;2023-03-13T07:54:18;10.38;;;3.08;;
54171;SDS011;40076;52.354;4.970;2023-03-13T07:56:43;12.43;;;4.05;;
54171;SDS011;40076;52.354;4.970;2023-03-13T07:59:09;14.40;;;3.70;;
54171;SDS011;40076;52.354;4.970;2023-03-13T08:01:34;13.48;;;3.60;;
54171;SDS011;40076;52.354;4.970;2023-03-13T08:03:59;16.00;;;3.28;;
54171;SDS011;40076;52.354;4.970;2023-03-13T08:06:26;11.48;;;2.95;;
54171;SDS011;40076;52.354;4.970;2023-03-13T08:08:55;12.57;;;3.75;;
54171;SDS011;40076;52.354;4.970;2023-03-13T08:11:23;14.80;;;3.55;;
54171;SDS011;40076;52.354;4.970;2023-03-13T08:13:50;12.05;;;3.72;;
54171;SDS011;40076;52.354;4.970;2023-03-13T08:16:17;12.85;;;3.40;;
54171;SDS011;40076;52.354;4.970;2023-03-13T08:18:48;11.98;;;3.47;;
54171;SDS011;40076;52.354;4.970;2023-03-13T08:21:16;9.90;;;3.40;;
54171;SDS011;40076;52.354;4.970;2023-03-13T08:23:47;7.68;;;3.00;;
54171;SDS011;40076;52.354;4.970;2023-03-13T08:26:16;9.57;;;3.35;;
54171;SDS011;40076;52.354;4.970;2023-03-13T08:28:44;10.88;;;3.15;;
54171;SDS011;40076;52.354;4.970;2023-03-13T08:31:11;9.68;;;2.72;;
54171;SDS011;40076;52.354;4.970;2023-03-13T08:33:39;14.00;;;2.92;;
54171;SDS011;40076;52.354;4.970;2023-03-13T08:38:39;8.00;;;2.60;;
54171;SDS011;40076;52.354;4.970;2023-03-13T08:41:09;11.57;;;3.15;;
54171;SDS011;40076;52.354;4.970;2023-03-13T08:43:35;13.75;;;2.85;;
54171;SDS011;40076;52.354;4.970;2023-03-13T08:46:01;9.95;;;2.45;;
54171;SDS011;40076;52.354;4.970;2023-03-13T08:48:26;14.38;;;3.42;;
54171;SDS011;40076;52.354;4.970;2023-03-13T08:51:02;15.20;;;2.92;;
54171;SDS011;40076;52.354;4.970;2023-03-13T08:53:29;11.15;;;2.42;;
54171;SDS011;40076;52.354;4.970;2023-03-13T08:55:56;12.15;;;2.45;;
54171;SDS011;40076;52.354;4.970;2023-03-13T08:58:21;12.05;;;2.30;;
54171;SDS011;40076;52.354;4.970;2023-03-13T09:00:47;11.00;;;2.85;;
54171;SDS011;40076;52.354;4.970;2023-03-13T09:03:12;14.05;;;3.60;;
54171;SDS011;40076;52.354;4.970;2023-03-13T09:05:37;12.30;;;2.63;;
54171;SDS011;40076;52.354;4.970;2023-03-13T09:08:03;12.38;;;2.22;;
54171;SDS011;40076;52.354;4.970;2023-03-13T09:10:28;11.98;;;2.90;;
54171;SDS011;40076;52.354;4.970;2023-03-13T09:12:54;15.38;;;2.65;;
54171;SDS011;40076;52.354;4.970;2023-03-13T09:15:19;12.82;;;2.53;;
54171;SDS011;40076;52.354;4.970;2023-03-13T09:17:44;11.30;;;2.60;;
54171;SDS011;40076;52.354;4.970;2023-03-13T09:20:10;14.07;;;2.90;;
54171;SDS011;40076;52.354;4.970;2023-03-13T09:22:35;13.20;;;2.60;;
54171;SDS011;40076;52.354;4.970;2023-03-13T09:25:01;16.45;;;2.67;;
54171;SDS011;40076;52.354;4.970;2023-03-13T09:27:26;16.00;;;3.10;;
54171;SDS011;40076;52.354;4.970;2023-03-13T09:29:52;16.13;;;3.03;;
54171;SDS011;40076;52.354;4.970;2023-03-13T09:32:18;18.15;;;3.10;;
54171;SDS011;40076;52.354;4.970;2023-03-13T09:34:44;15.00;;;3.05;;
54171;SDS011;40076;52.354;4.970;2023-03-13T09:37:10;14.80;;;2.85;;
54171;SDS011;40076;52.354;4.970;2023-03-13T09:39:35;14.90;;;3.20;;
54171;SDS011;40076;52.354;4.970;2023-03-13T09:42:03;17.05;;;3.13;;
54171;SDS011;40076;52.354;4.970;2023-03-13T09:45:05;16.35;;;3.67;;
54171;SDS011;40076;52.354;4.970;2023-03-13T09:47:43;13.77;;;2.70;;
54171;SDS011;40076;52.354;4.970;2023-03-13T09:52:52;8.15;;;2.15;;
54171;SDS011;40076;52.354;4.970;2023-03-13T09:55:28;18.42;;;2.83;;
54171;SDS011;40076;52.354;4.970;2023-03-13T09:58:01;13.52;;;2.60;;
54171;SDS011;40076;52.354;4.970;2023-03-13T10:00:35;13.55;;;2.22;;
54171;SDS011;40076;52.354;4.970;2023-03-13T10:05:55;6.90;;;1.95;;
54171;SDS011;40076;52.354;4.970;2023-03-13T10:08:24;11.10;;;2.30;;
54171;SDS011;40076;52.354;4.970;2023-03-13T10:16:17;7.28;;;2.00;;
54171;SDS011;40076;52.354;4.970;2023-03-13T10:18:52;8.43;;;2.00;;
54171;SDS011;40076;52.354;4.970;2023-03-13T10:21:21;8.63;;;1.75;;
54171;SDS011;40076;52.354;4.970;2023-03-13T10:26:54;6.90;;;1.45;;
54171;SDS011;40076;52.354;4.970;2023-03-13T10:29:27;9.15;;;1.50;;
54171;SDS011;40076;52.354;4.970;2023-03-13T10:31:58;9.65;;;1.65;;
54171;SDS011;40076;52.354;4.970;2023-03-13T10:34:27;8.90;;;1.63;;
54171;SDS011;40076;52.354;4.970;2023-03-13T10:37:08;4.82;;;1.38;;
54171;SDS011;40076;52.354;4.970;2023-03-13T10:39:37;11.35;;;2.45;;
54171;SDS011;40076;52.354;4.970;2023-03-13T10:42:17;10.32;;;2.00;;
54171;SDS011;40076;52.354;4.970;2023-03-13T10:44:45;10.15;;;2.20;;
54171;SDS011;40076;52.354;4.970;2023-03-13T10:47:14;11.88;;;2.08;;
54171;SDS011;40076;52.354;4.970;2023-03-13T10:50:41;14.43;;;2.10;;
54171;SDS011;40076;52.354;4.970;2023-03-13T10:52:46;10.98;;;1.98;;
54171;SDS011;40076;52.354;4.970;2023-03-13T10:55:15;9.82;;;3.15;;
54171;SDS011;40076;52.354;4.970;2023-03-13T11:00:36;10.45;;;2.08;;
54171;SDS011;40076;52.354;4.970;2023-03-13T11:03:45;15.50;;;2.33;;
54171;SDS011;40076;52.354;4.970;2023-03-13T11:06:01;14.10;;;2.90;;
54171;SDS011;40076;52.354;4.970;2023-03-13T11:08:32;12.93;;;2.50;;
54171;SDS011;40076;52.354;4.970;2023-03-13T11:11:14;10.43;;;2.50;;
54171;SDS011;40076;52.354;4.970;2023-03-13T11:13:42;13.35;;;2.78;;
54171;SDS011;40076;52.354;4.970;2023-03-13T11:16:29;14.23;;;2.00;;
54171;SDS011;40076;52.354;4.970;2023-03-13T11:19:00;9.23;;;2.30;;
54171;SDS011;40076;52.354;4.970;2023-03-13T11:21:41;14.43;;;2.30;;
54171;SDS011;40076;52.354;4.970;2023-03-13T11:27:19;12.90;;;2.50;;
54171;SDS011;40076;52.354;4.970;2023-03-13T11:29:53;12.93;;;2.92;;
54171;SDS011;40076;52.354;4.970;2023-03-13T11:32:41;20.73;;;3.20;;
54171;SDS011;40076;52.354;4.970;2023-03-13T11:38:08;13.32;;;3.05;;
54171;SDS011;40076;52.354;4.970;2023-03-13T11:46:19;19.58;;;3.30;;
54171;SDS011;40076;52.354;4.970;2023-03-13T11:54:21;22.10;;;3.25;;
54171;SDS011;40076;52.354;4.970;2023-03-13T11:56:58;16.35;;;3.10;;
54171;SDS011;40076;52.354;4.970;2023-03-13T12:02:11;16.02;;;4.00;;
54171;SDS011;40076;52.354;4.970;2023-03-13T12:04:46;21.77;;;5.00;;
54171;SDS011;40076;52.354;4.970;2023-03-13T12:09:58;18.80;;;4.13;;
54171;SDS011;40076;52.354;4.970;2023-03-13T12:17:34;17.90;;;3.60;;
54171;SDS011;40076;52.354;4.970;2023-03-13T12:20:13;17.10;;;3.70;;
54171;SDS011;40076;52.354;4.970;2023-03-13T12:44:41;24.60;;;4.13;;
54171;SDS011;40076;52.354;4.970;2023-03-13T12:47:08;21.45;;;4.28;;
54171;SDS011;40076;52.354;4.970;2023-03-13T12:52:31;24.85;;;4.43;;
54171;SDS011;40076;52.354;4.970;2023-03-13T12:55:03;20.58;;;3.28;;
54171;SDS011;40076;52.354;4.970;2023-03-13T12:57:39;21.27;;;4.05;;
54171;SDS011;40076;52.354;4.970;2023-03-13T13:00:26;19.60;;;3.78;;
54171;SDS011;40076;52.354;4.970;2023-03-13T13:05:26;22.98;;;4.72;;
54171;SDS011;40076;52.354;4.970;2023-03-13T13:07:55;23.35;;;3.97;;
54171;SDS011;40076;52.354;4.970;2023-03-13T13:10:21;19.35;;;3.40;;
54171;SDS011;40076;52.354;4.970;2023-03-13T13:15:37;21.63;;;3.50;;
54171;SDS011;40076;52.354;4.970;2023-03-13T13:18:24;25.73;;;4.47;;
54171;SDS011;40076;52.354;4.970;2023-03-13T13:23:27;21.50;;;4.10;;
54171;SDS011;40076;52.354;4.970;2023-03-13T13:26:36;21.58;;;4.45;;
54171;SDS011;40076;52.354;4.970;2023-03-13T13:28:48;18.85;;;3.95;;
54171;SDS011;40076;52.354;4.970;2023-03-13T13:34:38;18.30;;;3.95;;
54171;SDS011;40076;52.354;4.970;2023-03-13T13:37:01;24.55;;;4.63;;
54171;SDS011;40076;52.354;4.970;2023-03-13T13:39:47;28.17;;;4.18;;
54171;SDS011;40076;52.354;4.970;2023-03-13T13:45:43;21.15;;;4.50;;
54171;SDS011;40076;52.354;4.970;2023-03-13T13:47:46;23.98;;;4.78;;
54171;SDS011;40076;52.354;4.970;2023-03-13T13:50:20;28.65;;;5.57;;
54171;SDS011;40076;52.354;4.970;2023-03-13T13:52:48;20.55;;;3.83;;
54171;SDS011;40076;52.354;4.970;2023-03-13T13:57:45;25.08;;;4.80;;
54171;SDS011;40076;52.354;4.970;2023-03-13T14:02:56;20.33;;;4.75;;
54171;SDS011;40076;52.354;4.970;2023-03-13T14:05:22;26.15;;;4.25;;
54171;SDS011;40076;52.354;4.970;2023-03-13T14:10:29;21.33;;;4.05;;
54171;SDS011;40076;52.354;4.970;2023-03-13T14:12:57;21.70;;;4.18;;
54171;SDS011;40076;52.354;4.970;2023-03-13T14:15:24;24.77;;;4.40;;
54171;SDS011;40076;52.354;4.970;2023-03-13T14:18:17;24.75;;;3.92;;
54171;SDS011;40076;52.354;4.970;2023-03-13T14:21:01;23.10;;;4.50;;
54171;SDS011;40076;52.354;4.970;2023-03-13T14:25:53;23.23;;;5.00;;
54171;SDS011;40076;52.354;4.970;2023-03-13T14:28:19;27.13;;;4.60;;
54171;SDS011;40076;52.354;4.970;2023-03-13T14:30:53;19.98;;;3.63;;
54171;SDS011;40076;52.354;4.970;2023-03-13T14:33:20;27.67;;;5.40;;
54171;SDS011;40076;52.354;4.970;2023-03-13T14:35:46;21.88;;;4.03;;
54171;SDS011;40076;52.354;4.970;2023-03-13T14:38:19;22.70;;;4.65;;
54171;SDS011;40076;52.354;4.970;2023-03-13T14:40:49;27.23;;;4.50;;
54171;SDS011;40076;52.354;4.970;2023-03-13T14:43:35;19.38;;;4.38;;
54171;SDS011;40076;52.354;4.970;2023-03-13T14:46:24;24.90;;;3.97;;
54171;SDS011;40076;52.354;4.970;2023-03-13T14:48:54;23.42;;;4.65;;
54171;SDS011;40076;52.354;4.970;2023-03-13T14:51:21;22.20;;;4.07;;
54171;SDS011;40076;52.354;4.970;2023-03-13T14:54:32;31.38;;;4.80;;
54171;SDS011;40076;52.354;4.970;2023-03-13T14:57:04;27.45;;;4.88;;
54171;SDS011;40076;52.354;4.970;2023-03-13T14:59:32;27.33;;;5.03;;
54171;SDS011;40076;52.354;4.970;2023-03-13T15:02:02;24.10;;;4.95;;
54171;SDS011;40076;52.354;4.970;2023-03-13T15:07:16;25.65;;;4.43;;
54171;SDS011;40076;52.354;4.970;2023-03-13T15:09:43;21.73;;;4.70;;
54171;SDS011;40076;52.354;4.970;2023-03-13T15:12:14;23.92;;;4.22;;
54171;SDS011;40076;52.354;4.970;2023-03-13T15:14:42;26.98;;;4.82;;
54171;SDS011;40076;52.354;4.970;2023-03-13T15:19:38;23.88;;;4.38;;
54171;SDS011;40076;52.354;4.970;2023-03-13T15:22:03;27.13;;;5.13;;
54171;SDS011;40076;52.354;4.970;2023-03-13T15:24:29;25.55;;;4.13;;
54171;SDS011;40076;52.354;4.970;2023-03-13T15:26:54;34.95;;;4.80;;
54171;SDS011;40076;52.354;4.970;2023-03-13T15:29:19;27.98;;;4.38;;
54171;SDS011;40076;52.354;4.970;2023-03-13T15:31:45;21.02;;;4.63;;
54171;SDS011;40076;52.354;4.970;2023-03-13T15:34:13;29.48;;;5.03;;
54171;SDS011;40076;52.354;4.970;2023-03-13T15:36:40;24.00;;;5.28;;
54171;SDS011;40076;52.354;4.970;2023-03-13T15:39:14;26.98;;;4.75;;
54171;SDS011;40076;52.354;4.970;2023-03-13T15:41:40;21.92;;;4.65;;
54171;SDS011;40076;52.354;4.970;2023-03-13T15:44:06;24.90;;;4.75;;
54171;SDS011;40076;52.354;4.970;2023-03-13T15:46:31;28.40;;;5.35;;
54171;SDS011;40076;52.354;4.970;2023-03-13T15:48:56;29.70;;;6.03;;
54171;SDS011;40076;52.354;4.970;2023-03-13T15:51:22;23.50;;;4.35;;
54171;SDS011;40076;52.354;4.970;2023-03-13T15:53:47;27.08;;;5.57;;
54171;SDS011;40076;52.354;4.970;2023-03-13T15:58:39;23.67;;;4.93;;
54171;SDS011;40076;52.354;4.970;2023-03-13T16:01:05;22.83;;;4.43;;
54171;SDS011;40076;52.354;4.970;2023-03-13T16:03:31;26.38;;;5.07;;
54171;SDS011;40076;52.354;4.970;2023-03-13T16:05:56;29.45;;;5.45;;
54171;SDS011;40076;52.354;4.970;2023-03-13T16:08:23;28.05;;;5.55;;
54171;SDS011;40076;52.354;4.970;2023-03-13T16:10:51;24.73;;;4.70;;
54171;SDS011;40076;52.354;4.970;2023-03-13T16:13:17;26.23;;;4.82;;
54171;SDS011;40076;52.354;4.970;2023-03-13T16:15:42;21.75;;;4.43;;
54171;SDS011;40076;52.354;4.970;2023-03-13T16:18:09;25.30;;;4.97;;
54171;SDS011;40076;52.354;4.970;2023-03-13T16:20:42;22.65;;;5.25;;
54171;SDS011;40076;52.354;4.970;2023-03-13T16:23:07;26.45;;;5.15;;
54171;SDS011;40076;52.354;4.970;2023-03-13T16:25:33;26.67;;;4.28;;
54171;SDS011;40076;52.354;4.970;2023-03-13T16:27:58;26.15;;;4.38;;
54171;SDS011;40076;52.354;4.970;2023-03-13T16:30:29;22.35;;;4.00;;